createdAt,value
2019-05-17T00:00:01.000Z,7.312
2019-05-17T00:02:02.000Z,7.312
2019-05-17T00:04:01.000Z,7.312
2019-05-17T00:05:00.000Z,7.312
2019-05-17T00:09:02.000Z,7.312
2019-05-17T00:21:02.000Z,7.062
2019-05-17T00:22:02.000Z,7.125
2019-05-17T00:23:02.000Z,7.062
2019-05-17T00:24:02.000Z,7.062
2019-05-17T00:25:01.000Z,7.062
2019-05-17T00:26:02.000Z,7.062
2019-05-17T00:27:01.000Z,7.062
2019-05-17T00:28:01.000Z,7.062
2019-05-17T00:29:01.000Z,7
2019-05-17T00:30:01.000Z,7
2019-05-17T00:31:01.000Z,7
2019-05-17T00:32:01.000Z,7
2019-05-17T00:32:02.000Z,7
2019-05-17T00:33:01.000Z,7
2019-05-17T00:34:01.000Z,6.937
2019-05-17T00:35:02.000Z,6.937
2019-05-17T00:36:01.000Z,7
2019-05-17T00:37:01.000Z,7
2019-05-17T00:38:01.000Z,7
2019-05-17T00:39:02.000Z,7
2019-05-17T00:40:01.000Z,7
2019-05-17T00:41:02.000Z,6.937
2019-05-17T00:42:02.000Z,6.937
2019-05-17T00:43:01.000Z,6.937
2019-05-17T00:43:01.000Z,6.937
2019-05-17T00:44:01.000Z,6.937
2019-05-17T00:45:01.000Z,6.937
2019-05-17T00:46:01.000Z,6.937
2019-05-17T00:47:01.000Z,7
2019-05-17T00:48:01.000Z,7
2019-05-17T00:49:02.000Z,7
2019-05-17T00:50:02.000Z,7
2019-05-17T00:51:01.000Z,7
2019-05-17T00:52:01.000Z,7.062
2019-05-17T00:53:01.000Z,7
2019-05-17T00:54:02.000Z,7
2019-05-17T00:54:02.000Z,7
2019-05-17T00:55:01.000Z,7
2019-05-17T00:56:02.000Z,7
2019-05-17T00:57:02.000Z,6.937
2019-05-17T00:58:02.000Z,7
2019-05-17T00:59:02.000Z,6.937
2019-05-17T01:00:02.000Z,6.937
2019-05-17T01:01:02.000Z,6.937
2019-05-17T01:02:02.000Z,6.875
2019-05-17T01:03:02.000Z,6.875
2019-05-17T01:04:02.000Z,6.875
2019-05-17T01:05:01.000Z,6.812
2019-05-17T01:05:02.000Z,6.812
2019-05-17T01:06:01.000Z,6.812
2019-05-17T01:07:01.000Z,6.812
2019-05-17T01:08:01.000Z,6.812
2019-05-17T01:09:02.000Z,6.812
2019-05-17T01:10:01.000Z,6.812
2019-05-17T01:11:01.000Z,6.812
2019-05-17T01:12:01.000Z,6.812
2019-05-17T01:13:01.000Z,6.812
2019-05-17T01:14:01.000Z,6.812
2019-05-17T01:15:01.000Z,6.75
2019-05-17T01:16:02.000Z,6.75
2019-05-17T01:16:02.000Z,6.75
2019-05-17T01:17:01.000Z,6.75
2019-05-17T01:18:01.000Z,6.75
2019-05-17T01:19:02.000Z,6.75
2019-05-17T01:20:02.000Z,6.75
2019-05-17T01:21:01.000Z,6.687
2019-05-17T01:22:02.000Z,6.687
2019-05-17T01:23:02.000Z,6.625
2019-05-17T01:24:01.000Z,6.625
2019-05-17T01:25:01.000Z,6.625
2019-05-17T01:26:01.000Z,6.5
2019-05-17T01:27:02.000Z,6.5
2019-05-17T01:28:02.000Z,6.5
2019-05-17T01:29:02.000Z,6.5
2019-05-17T01:30:02.000Z,6.437
2019-05-17T01:30:02.000Z,6.5
2019-05-17T01:31:02.000Z,6.437
2019-05-17T01:32:01.000Z,6.375
2019-05-17T01:33:02.000Z,6.375
2019-05-17T01:34:02.000Z,6.375
2019-05-17T01:35:02.000Z,6.312
2019-05-17T01:36:02.000Z,6.312
2019-05-17T01:37:02.000Z,6.312
2019-05-17T01:38:02.000Z,6.25
2019-05-17T01:39:02.000Z,6.25
2019-05-17T01:40:02.000Z,6.25
2019-05-17T01:41:02.000Z,6.25
2019-05-17T01:42:02.000Z,6.187
2019-05-17T01:43:02.000Z,6.187
2019-05-17T01:43:02.000Z,6.187
2019-05-17T01:44:01.000Z,6.187
2019-05-17T01:45:02.000Z,6.187
2019-05-17T01:46:02.000Z,6.187
2019-05-17T01:47:02.000Z,6.187
2019-05-17T01:48:01.000Z,6.187
2019-05-17T01:49:02.000Z,6.187
2019-05-17T01:50:02.000Z,6.187
2019-05-17T01:51:02.000Z,6.187
2019-05-17T01:52:01.000Z,6.187
2019-05-17T01:53:02.000Z,6.187
2019-05-17T01:54:02.000Z,6.187
2019-05-17T01:55:02.000Z,6.125
2019-05-17T01:56:01.000Z,6.125
2019-05-17T01:56:02.000Z,6.125
2019-05-17T01:57:01.000Z,6.125
2019-05-17T01:58:02.000Z,6.125
2019-05-17T01:59:02.000Z,6.125
2019-05-17T02:00:02.000Z,6.125
2019-05-17T02:01:02.000Z,6.125
2019-05-17T02:02:02.000Z,6.187
2019-05-17T02:03:02.000Z,6.125
2019-05-17T02:04:01.000Z,6.125
2019-05-17T02:05:02.000Z,6.125
2019-05-17T02:06:01.000Z,6.125
2019-05-17T02:07:02.000Z,6.125
2019-05-17T02:08:02.000Z,6.125
2019-05-17T02:09:02.000Z,6.125
2019-05-17T02:09:02.000Z,6.125
2019-05-17T02:10:01.000Z,6.125
2019-05-17T02:11:02.000Z,6.125
2019-05-17T02:12:02.000Z,6.187
2019-05-17T02:13:02.000Z,6.187
2019-05-17T02:14:02.000Z,6.187
2019-05-17T02:14:02.000Z,6.187
2019-05-17T02:15:02.000Z,6.187
2019-05-17T02:15:02.000Z,6.187
2019-05-17T02:16:02.000Z,6.187
2019-05-17T02:16:02.000Z,6.187
2019-05-17T02:17:02.000Z,6.187
2019-05-17T02:17:02.000Z,6.187
2019-05-17T02:18:02.000Z,6.187
2019-05-17T02:18:02.000Z,6.187
2019-05-17T02:19:01.000Z,6.25
2019-05-17T02:20:01.000Z,6.187
2019-05-17T02:21:01.000Z,6.187
2019-05-17T02:21:02.000Z,6.187
2019-05-17T02:22:01.000Z,6.187
2019-05-17T02:23:02.000Z,6.187
2019-05-17T02:24:02.000Z,6.25
2019-05-17T02:25:01.000Z,6.25
2019-05-17T02:26:02.000Z,6.25
2019-05-17T02:27:02.000Z,6.25
2019-05-17T02:28:02.000Z,6.25
2019-05-17T02:29:01.000Z,6.25
2019-05-17T02:30:01.000Z,6.25
2019-05-17T02:31:01.000Z,6.25
2019-05-17T02:32:01.000Z,6.25
2019-05-17T02:33:01.000Z,6.187
2019-05-17T02:33:02.000Z,6.187
2019-05-17T02:34:01.000Z,6.187
2019-05-17T02:35:01.000Z,6.187
2019-05-17T02:36:01.000Z,6.187
2019-05-17T02:37:01.000Z,6.25
2019-05-17T02:38:01.000Z,6.187
2019-05-17T02:39:01.000Z,6.187
2019-05-17T02:40:02.000Z,6.187
2019-05-17T02:41:02.000Z,6.25
2019-05-17T02:42:01.000Z,6.25
2019-05-17T02:43:01.000Z,6.25
2019-05-17T02:44:01.000Z,6.187
2019-05-17T02:45:01.000Z,6.187
2019-05-17T02:45:02.000Z,6.187
2019-05-17T02:46:01.000Z,6.187
2019-05-17T02:47:01.000Z,6.187
2019-05-17T02:48:01.000Z,6.187
2019-05-17T02:49:01.000Z,6.125
2019-05-17T02:50:01.000Z,6.187
2019-05-17T02:51:02.000Z,6.125
2019-05-17T02:52:02.000Z,6.125
2019-05-17T02:53:02.000Z,6.125
2019-05-17T02:54:02.000Z,6.187
2019-05-17T02:55:02.000Z,6.125
2019-05-17T02:56:01.000Z,6.187
2019-05-17T02:57:01.000Z,6.187
2019-05-17T02:58:01.000Z,6.187
2019-05-17T02:58:01.000Z,6.187
2019-05-17T02:59:01.000Z,6.187
2019-05-17T03:00:01.000Z,6.187
2019-05-17T03:01:01.000Z,6.187
2019-05-17T03:02:01.000Z,6.187
2019-05-17T03:03:01.000Z,6.187
2019-05-17T03:04:01.000Z,6.187
2019-05-17T03:05:01.000Z,6.187
2019-05-17T03:06:01.000Z,6.187
2019-05-17T03:07:01.000Z,6.25
2019-05-17T03:08:01.000Z,6.25
2019-05-17T03:09:02.000Z,6.25
2019-05-17T03:10:01.000Z,6.25
2019-05-17T03:11:01.000Z,6.25
2019-05-17T03:11:02.000Z,6.25
2019-05-17T03:12:01.000Z,6.25
2019-05-17T03:13:01.000Z,6.25
2019-05-17T03:14:01.000Z,6.25
2019-05-17T03:15:01.000Z,6.25
2019-05-17T03:16:01.000Z,6.187
2019-05-17T03:17:01.000Z,6.187
2019-05-17T03:18:01.000Z,6.25
2019-05-17T03:19:01.000Z,6.25
2019-05-17T03:20:01.000Z,6.25
2019-05-17T03:20:02.000Z,6.25
2019-05-17T03:21:01.000Z,6.25
2019-05-17T03:22:01.000Z,6.25
2019-05-17T03:23:01.000Z,6.312
2019-05-17T03:24:01.000Z,6.312
2019-05-17T03:25:01.000Z,6.312
2019-05-17T03:26:01.000Z,6.375
2019-05-17T03:27:02.000Z,6.375
2019-05-17T03:28:02.000Z,6.375
2019-05-17T03:29:02.000Z,6.375
2019-05-17T03:30:01.000Z,6.375
2019-05-17T03:30:01.000Z,6.375
2019-05-17T03:31:01.000Z,6.375
2019-05-17T03:32:01.000Z,6.375
2019-05-17T03:33:01.000Z,6.375
2019-05-17T03:34:01.000Z,6.375
2019-05-17T03:35:01.000Z,6.375
2019-05-17T03:36:02.000Z,6.375
2019-05-17T03:37:02.000Z,6.375
2019-05-17T03:38:02.000Z,6.375
2019-05-17T03:39:02.000Z,6.437
2019-05-17T03:40:01.000Z,6.437
2019-05-17T03:41:02.000Z,6.5
2019-05-17T03:42:01.000Z,6.437
2019-05-17T03:43:01.000Z,6.5
2019-05-17T03:43:01.000Z,6.5
2019-05-17T03:44:01.000Z,6.5
2019-05-17T03:45:02.000Z,6.5
2019-05-17T03:46:02.000Z,6.5
2019-05-17T03:47:02.000Z,6.5
2019-05-17T03:48:02.000Z,6.5
2019-05-17T03:49:02.000Z,6.562
2019-05-17T03:50:02.000Z,6.562
2019-05-17T03:51:02.000Z,6.562
2019-05-17T03:52:01.000Z,6.562
2019-05-17T03:53:01.000Z,6.625
2019-05-17T03:54:01.000Z,6.625
2019-05-17T03:55:02.000Z,6.625
2019-05-17T03:56:02.000Z,6.625
2019-05-17T03:56:02.000Z,6.625
2019-05-17T03:57:01.000Z,6.625
2019-05-17T03:58:01.000Z,6.625
2019-05-17T03:59:01.000Z,6.625
2019-05-17T04:00:01.000Z,6.625
2019-05-17T04:01:01.000Z,6.75
2019-05-17T04:02:01.000Z,6.812
2019-05-17T04:03:01.000Z,6.812
2019-05-17T04:04:01.000Z,6.875
2019-05-17T04:05:01.000Z,6.812
2019-05-17T04:06:01.000Z,6.812
2019-05-17T04:07:01.000Z,6.875
2019-05-17T04:08:01.000Z,6.875
2019-05-17T04:08:01.000Z,6.875
2019-05-17T04:09:01.000Z,6.875
2019-05-17T04:10:02.000Z,6.875
2019-05-17T04:11:02.000Z,6.875
2019-05-17T04:12:02.000Z,6.937
2019-05-17T04:13:01.000Z,6.875
2019-05-17T04:14:01.000Z,6.937
2019-05-17T04:15:01.000Z,7
2019-05-17T04:16:01.000Z,7.062
2019-05-17T04:17:02.000Z,7
2019-05-17T04:18:02.000Z,7
2019-05-17T04:19:02.000Z,7.062
2019-05-17T04:19:02.000Z,7.062
2019-05-17T04:20:01.000Z,7.062
2019-05-17T04:21:01.000Z,7.125
2019-05-17T04:22:01.000Z,7.125
2019-05-17T04:23:01.000Z,7.125
2019-05-17T04:24:01.000Z,7.125
2019-05-17T04:25:01.000Z,7.187
2019-05-17T04:26:01.000Z,7.187
2019-05-17T04:27:02.000Z,7.25
2019-05-17T04:28:02.000Z,7.312
2019-05-17T04:29:01.000Z,7.312
2019-05-17T04:29:02.000Z,7.312
2019-05-17T04:30:01.000Z,7.375
2019-05-17T04:31:01.000Z,7.437
2019-05-17T04:32:01.000Z,7.5
2019-05-17T04:33:01.000Z,7.625
2019-05-17T04:34:01.000Z,7.687
2019-05-17T04:35:01.000Z,7.75
2019-05-17T04:36:01.000Z,7.812
2019-05-17T04:37:01.000Z,7.875
2019-05-17T04:38:01.000Z,8
2019-05-17T04:39:01.000Z,8.062
2019-05-17T04:39:02.000Z,8.062
2019-05-17T04:40:02.000Z,8.062
2019-05-17T04:41:02.000Z,8.125
2019-05-17T04:42:02.000Z,8.187
2019-05-17T04:43:02.000Z,8.187
2019-05-17T04:44:02.000Z,8.187
2019-05-17T04:45:02.000Z,8.25
2019-05-17T04:46:01.000Z,8.375
2019-05-17T04:47:01.000Z,8.562
2019-05-17T04:48:01.000Z,8.875
2019-05-17T04:49:01.000Z,8.875
2019-05-17T04:50:01.000Z,9.062
2019-05-17T04:51:01.000Z,9.25
2019-05-17T04:52:01.000Z,9.375
2019-05-17T04:53:01.000Z,9.312
2019-05-17T04:53:01.000Z,9.312
2019-05-17T04:54:01.000Z,9.312
2019-05-17T04:55:01.000Z,9.5
2019-05-17T04:56:01.000Z,9.75
2019-05-17T04:57:01.000Z,9.875
2019-05-17T04:58:01.000Z,10
2019-05-17T04:59:01.000Z,10.062
2019-05-17T05:00:01.000Z,10.25
2019-05-17T05:01:01.000Z,10.5
2019-05-17T05:02:01.000Z,10.5
2019-05-17T05:03:01.000Z,10.312
2019-05-17T05:04:01.000Z,10.25
2019-05-17T05:05:02.000Z,10.312
2019-05-17T05:06:02.000Z,10.437
2019-05-17T05:06:02.000Z,10.437
2019-05-17T05:07:02.000Z,10.437
2019-05-17T05:08:02.000Z,10.625
2019-05-17T05:09:02.000Z,10.875
2019-05-17T05:10:01.000Z,11.062
2019-05-17T05:11:01.000Z,11.062
2019-05-17T05:12:02.000Z,11.375
2019-05-17T05:13:02.000Z,11.687
2019-05-17T05:14:01.000Z,11.75
2019-05-17T05:15:01.000Z,12
2019-05-17T05:16:01.000Z,12.25
2019-05-17T05:17:01.000Z,12.562
2019-05-17T05:18:01.000Z,12.812
2019-05-17T05:19:01.000Z,12.937
2019-05-17T05:19:01.000Z,12.812
2019-05-17T05:20:01.000Z,13.25
2019-05-17T05:21:01.000Z,13.625
2019-05-17T05:22:01.000Z,13.937
2019-05-17T05:23:01.000Z,14.187
2019-05-17T05:24:01.000Z,14.437
2019-05-17T05:25:01.000Z,14.5
2019-05-17T05:26:02.000Z,14.687
2019-05-17T05:27:02.000Z,14.937
2019-05-17T05:28:02.000Z,15.312
2019-05-17T05:29:02.000Z,15.625
2019-05-17T05:30:02.000Z,15.875
2019-05-17T05:31:02.000Z,16.062
2019-05-17T05:32:01.000Z,16.062
2019-05-17T05:32:02.000Z,16.062
2019-05-17T05:33:02.000Z,16.062
2019-05-17T05:34:01.000Z,16.25
2019-05-17T05:35:01.000Z,16.25
2019-05-17T05:36:01.000Z,16.375
2019-05-17T05:37:01.000Z,16.437
2019-05-17T05:38:01.000Z,16.437
2019-05-17T05:39:01.000Z,16.562
2019-05-17T05:40:01.000Z,16.875
2019-05-17T05:41:01.000Z,16.875
2019-05-17T05:42:01.000Z,16.687
2019-05-17T05:42:02.000Z,16.687
2019-05-17T05:43:01.000Z,16.312
2019-05-17T05:44:01.000Z,15.812
2019-05-17T05:45:02.000Z,15.375
2019-05-17T05:46:01.000Z,14.937
2019-05-17T05:47:02.000Z,14.687
2019-05-17T05:48:02.000Z,14.5
2019-05-17T05:49:01.000Z,14.312
2019-05-17T05:50:01.000Z,14.125
2019-05-17T05:51:01.000Z,14
2019-05-17T05:52:01.000Z,13.875
2019-05-17T05:52:01.000Z,13.875
2019-05-17T05:53:02.000Z,13.75
2019-05-17T05:54:01.000Z,13.687
2019-05-17T05:55:02.000Z,13.625
2019-05-17T05:56:01.000Z,13.562
2019-05-17T05:57:01.000Z,13.562
2019-05-17T05:58:02.000Z,13.437
2019-05-17T05:59:01.000Z,13.375
2019-05-17T06:00:01.000Z,13.375
2019-05-17T06:01:01.000Z,13.312
2019-05-17T06:02:01.000Z,13.312
2019-05-17T06:03:01.000Z,13.375
2019-05-17T06:04:02.000Z,13.437
2019-05-17T06:05:02.000Z,13.437
2019-05-17T06:05:02.000Z,13.437
2019-05-17T06:06:01.000Z,13.375
2019-05-17T06:07:02.000Z,13.375
2019-05-17T06:08:02.000Z,13.437
2019-05-17T06:09:02.000Z,13.437
2019-05-17T06:10:01.000Z,13.437
2019-05-17T06:11:01.000Z,13.5
2019-05-17T06:12:01.000Z,13.562
2019-05-17T06:13:01.000Z,13.625
2019-05-17T06:14:01.000Z,13.625
2019-05-17T06:15:02.000Z,13.687
2019-05-17T06:16:02.000Z,13.687
2019-05-17T06:17:01.000Z,13.687
2019-05-17T06:18:01.000Z,13.687
2019-05-17T06:18:02.000Z,13.687
2019-05-17T06:19:01.000Z,13.75
2019-05-17T06:20:01.000Z,13.75
2019-05-17T06:21:01.000Z,13.812
2019-05-17T06:22:01.000Z,13.812
2019-05-17T06:23:02.000Z,13.75
2019-05-17T06:24:02.000Z,13.75
2019-05-17T06:25:02.000Z,13.937
2019-05-17T06:26:02.000Z,14.062
2019-05-17T06:27:02.000Z,14.125
2019-05-17T06:28:01.000Z,14.187
2019-05-17T06:29:01.000Z,14.187
2019-05-17T06:30:01.000Z,14.375
2019-05-17T06:31:01.000Z,14.437
2019-05-17T06:31:02.000Z,14.437
2019-05-17T06:32:01.000Z,14.5
2019-05-17T06:33:01.000Z,14.5
2019-05-17T06:34:01.000Z,14.625
2019-05-17T06:35:01.000Z,14.812
2019-05-17T06:36:01.000Z,15
2019-05-17T06:37:01.000Z,15.187
2019-05-17T06:38:01.000Z,15.312
2019-05-17T06:39:01.000Z,15.5
2019-05-17T06:40:01.000Z,15.812
2019-05-17T06:41:01.000Z,15.875
2019-05-17T06:42:01.000Z,15.937
2019-05-17T06:43:01.000Z,15.937
2019-05-17T06:44:01.000Z,16
2019-05-17T06:44:01.000Z,16
2019-05-17T06:45:01.000Z,16.125
2019-05-17T06:46:01.000Z,16.187
2019-05-17T06:47:02.000Z,16.25
2019-05-17T06:48:02.000Z,16.187
2019-05-17T06:49:02.000Z,16
2019-05-17T06:50:02.000Z,15.937
2019-05-17T06:51:02.000Z,15.937
2019-05-17T06:52:02.000Z,16
2019-05-17T06:53:02.000Z,16
2019-05-17T06:54:01.000Z,16
2019-05-17T06:55:01.000Z,15.937
2019-05-17T06:56:02.000Z,16
2019-05-17T06:57:02.000Z,15.937
2019-05-17T06:58:02.000Z,15.875
2019-05-17T06:59:02.000Z,15.875
2019-05-17T07:00:02.000Z,16.062
2019-05-17T07:01:01.000Z,16.312
2019-05-17T07:02:01.000Z,16.312
2019-05-17T07:03:01.000Z,16.437
2019-05-17T07:03:01.000Z,16.437
2019-05-17T07:04:02.000Z,16.437
2019-05-17T07:05:02.000Z,16.437
2019-05-17T07:06:01.000Z,16.187
2019-05-17T07:07:01.000Z,16.062
2019-05-17T07:08:01.000Z,16.062
2019-05-17T07:09:02.000Z,16.062
2019-05-17T07:10:02.000Z,16.312
2019-05-17T07:11:01.000Z,16.375
2019-05-17T07:12:02.000Z,16.687
2019-05-17T07:13:01.000Z,17.125
2019-05-17T07:14:02.000Z,17.375
2019-05-17T07:15:01.000Z,17.75
2019-05-17T07:16:02.000Z,18.125
2019-05-17T07:16:02.000Z,18.125
2019-05-17T07:17:02.000Z,18.187
2019-05-17T07:18:01.000Z,17.875
2019-05-17T07:19:02.000Z,17.875
2019-05-17T07:20:01.000Z,17.812
2019-05-17T07:21:01.000Z,17.875
2019-05-17T07:22:01.000Z,18
2019-05-17T07:23:01.000Z,18.062
2019-05-17T07:24:02.000Z,18.125
2019-05-17T07:25:01.000Z,18.062
2019-05-17T07:26:01.000Z,18.125
2019-05-17T07:27:01.000Z,18.375
2019-05-17T07:27:02.000Z,18.375
2019-05-17T07:28:01.000Z,18.562
2019-05-17T07:29:02.000Z,18.812
2019-05-17T07:30:02.000Z,18.562
2019-05-17T07:31:02.000Z,18.375
2019-05-17T07:32:02.000Z,18.312
2019-05-17T07:33:01.000Z,18.437
2019-05-17T07:34:01.000Z,18.5
2019-05-17T07:35:02.000Z,18.812
2019-05-17T07:36:02.000Z,19.312
2019-05-17T07:37:02.000Z,19.375
2019-05-17T07:38:01.000Z,19.437
2019-05-17T07:39:01.000Z,19.375
2019-05-17T07:40:01.000Z,19.437
2019-05-17T07:40:02.000Z,19.437
2019-05-17T07:41:02.000Z,19.687
2019-05-17T07:42:02.000Z,19.937
2019-05-17T07:43:02.000Z,20
2019-05-17T07:44:02.000Z,20.125
2019-05-17T07:45:01.000Z,20.562
2019-05-17T07:46:01.000Z,20.25
2019-05-17T07:47:01.000Z,20.062
2019-05-17T07:48:01.000Z,19.687
2019-05-17T07:49:01.000Z,19.562
2019-05-17T07:50:01.000Z,19.375
2019-05-17T07:51:01.000Z,19.437
2019-05-17T07:52:01.000Z,19.687
2019-05-17T07:53:01.000Z,19.812
2019-05-17T07:54:01.000Z,19.75
2019-05-17T07:54:02.000Z,19.75
2019-05-17T07:55:01.000Z,19.875
2019-05-17T07:56:02.000Z,20
2019-05-17T07:57:02.000Z,19.875
2019-05-17T07:58:02.000Z,19.625
2019-05-17T07:59:01.000Z,19.75
2019-05-17T08:00:01.000Z,19.812
2019-05-17T08:01:02.000Z,19.812
2019-05-17T08:02:01.000Z,19.937
2019-05-17T08:03:02.000Z,20.75
2019-05-17T08:03:02.000Z,20.75
2019-05-17T08:04:02.000Z,20.75
2019-05-17T08:05:01.000Z,21.562
2019-05-17T08:06:01.000Z,21.625
2019-05-17T08:07:01.000Z,21.437
2019-05-17T08:08:01.000Z,20.812
2019-05-17T08:09:01.000Z,20.312
2019-05-17T08:10:01.000Z,20.25
2019-05-17T08:11:01.000Z,20.437
2019-05-17T08:12:01.000Z,20.875
2019-05-17T08:13:02.000Z,21.187
2019-05-17T08:13:02.000Z,21.187
2019-05-17T08:14:01.000Z,21.437
2019-05-17T08:15:01.000Z,21.312
2019-05-17T08:16:01.000Z,21.375
2019-05-17T08:17:01.000Z,21.375
2019-05-17T08:18:01.000Z,21.437
2019-05-17T08:19:02.000Z,21.625
2019-05-17T08:20:02.000Z,21.875
2019-05-17T08:21:02.000Z,22.187
2019-05-17T08:22:02.000Z,22.187
2019-05-17T08:23:01.000Z,22.562
2019-05-17T08:24:01.000Z,22.937
2019-05-17T08:25:01.000Z,23.062
2019-05-17T08:26:02.000Z,22.875
2019-05-17T08:26:02.000Z,22.875
2019-05-17T08:27:01.000Z,22.687
2019-05-17T08:28:01.000Z,22.5
2019-05-17T08:29:01.000Z,22.187
2019-05-17T08:30:01.000Z,21.687
2019-05-17T08:31:01.000Z,21.125
2019-05-17T08:32:01.000Z,20.562
2019-05-17T08:33:01.000Z,20.5
2019-05-17T08:34:01.000Z,20.5
2019-05-17T08:35:01.000Z,20.437
2019-05-17T08:36:01.000Z,20.375
2019-05-17T08:37:01.000Z,20.625
2019-05-17T08:38:01.000Z,20.875
2019-05-17T08:39:01.000Z,20.75
2019-05-17T08:39:02.000Z,20.75
2019-05-17T08:40:01.000Z,20.562
2019-05-17T08:41:02.000Z,20.625
2019-05-17T08:42:01.000Z,20.625
2019-05-17T08:43:01.000Z,20.75
2019-05-17T08:44:01.000Z,20.937
2019-05-17T08:45:01.000Z,21.312
2019-05-17T08:46:02.000Z,21.625
2019-05-17T08:47:02.000Z,21.937
2019-05-17T08:48:01.000Z,22.187
2019-05-17T08:49:01.000Z,22.5
2019-05-17T08:50:01.000Z,22.812
2019-05-17T08:51:01.000Z,23
2019-05-17T08:52:02.000Z,23
2019-05-17T08:52:02.000Z,23
2019-05-17T08:53:02.000Z,22.937
2019-05-17T08:54:01.000Z,23.125
2019-05-17T08:55:01.000Z,23.25
2019-05-17T08:56:01.000Z,23.437
2019-05-17T08:57:01.000Z,23.562
2019-05-17T08:58:01.000Z,23.812
2019-05-17T08:59:01.000Z,23.75
2019-05-17T09:00:02.000Z,23.375
2019-05-17T09:01:02.000Z,22.625
2019-05-17T09:02:02.000Z,22.187
2019-05-17T09:03:01.000Z,21.875
2019-05-17T09:04:02.000Z,22.125
2019-05-17T09:05:01.000Z,22.375
2019-05-17T09:05:01.000Z,22.375
2019-05-17T09:06:01.000Z,22.687
2019-05-17T09:07:02.000Z,22.937
2019-05-17T09:08:02.000Z,22.937
2019-05-17T09:09:02.000Z,22.437
2019-05-17T09:10:01.000Z,22.187
2019-05-17T09:11:01.000Z,21.75
2019-05-17T09:12:02.000Z,21.75
2019-05-17T09:13:02.000Z,21.75
2019-05-17T09:14:01.000Z,22.125
2019-05-17T09:15:01.000Z,22.562
2019-05-17T09:16:01.000Z,22.437
2019-05-17T09:16:02.000Z,22.437
2019-05-17T09:17:02.000Z,22.625
2019-05-17T09:18:02.000Z,22.5
2019-05-17T09:19:01.000Z,22.375
2019-05-17T09:20:01.000Z,22.875
2019-05-17T09:21:01.000Z,23.187
2019-05-17T09:22:01.000Z,23.375
2019-05-17T09:23:01.000Z,23.625
2019-05-17T09:24:01.000Z,23.625
2019-05-17T09:25:01.000Z,23.687
2019-05-17T09:26:01.000Z,23.937
2019-05-17T09:26:02.000Z,23.937
2019-05-17T09:27:01.000Z,24
2019-05-17T09:28:01.000Z,24.187
2019-05-17T09:29:02.000Z,24.5
2019-05-17T09:30:02.000Z,24.75
2019-05-17T09:31:02.000Z,24.75
2019-05-17T09:32:02.000Z,24.25
2019-05-17T09:33:02.000Z,23.562
2019-05-17T09:34:01.000Z,22.937
2019-05-17T09:35:02.000Z,22.75
2019-05-17T09:36:02.000Z,22.812
2019-05-17T09:37:02.000Z,23.25
2019-05-17T09:38:02.000Z,23.562
2019-05-17T09:39:02.000Z,24.187
2019-05-17T09:39:02.000Z,24.187
2019-05-17T09:40:02.000Z,24.437
2019-05-17T09:41:02.000Z,24.5
2019-05-17T09:42:02.000Z,24.562
2019-05-17T09:43:01.000Z,24.562
2019-05-17T09:44:01.000Z,24.687
2019-05-17T09:45:01.000Z,24.875
2019-05-17T09:46:01.000Z,25.312
2019-05-17T09:47:01.000Z,25.625
2019-05-17T09:48:01.000Z,25.812
2019-05-17T09:49:01.000Z,26.187
2019-05-17T09:50:01.000Z,26.25
2019-05-17T09:51:02.000Z,25.875
2019-05-17T09:52:02.000Z,25.5
2019-05-17T09:52:02.000Z,25.5
2019-05-17T09:53:02.000Z,25
2019-05-17T09:54:02.000Z,24.375
2019-05-17T09:55:01.000Z,23.937
2019-05-17T09:56:01.000Z,23.562
2019-05-17T09:57:01.000Z,23
2019-05-17T09:58:01.000Z,22.75
2019-05-17T09:59:01.000Z,22.937
2019-05-17T10:00:01.000Z,23.437
2019-05-17T10:01:01.000Z,23.812
2019-05-17T10:02:01.000Z,23.687
2019-05-17T10:03:02.000Z,23.625
2019-05-17T10:04:01.000Z,23.437
2019-05-17T10:05:01.000Z,23.5
2019-05-17T10:05:02.000Z,23.5
2019-05-17T10:06:01.000Z,23.625
2019-05-17T10:07:01.000Z,23.75
2019-05-17T10:08:01.000Z,23.5
2019-05-17T10:09:01.000Z,23.687
2019-05-17T10:10:02.000Z,23.75
2019-05-17T10:11:02.000Z,23.75
2019-05-17T10:12:02.000Z,23.562
2019-05-17T10:13:02.000Z,23.25
2019-05-17T10:14:02.000Z,23.125
2019-05-17T10:15:01.000Z,23.187
2019-05-17T10:16:01.000Z,23.125
2019-05-17T10:16:01.000Z,23.125
2019-05-17T10:17:02.000Z,23.187
2019-05-17T10:18:01.000Z,23.187
2019-05-17T10:19:01.000Z,23.125
2019-05-17T10:20:01.000Z,23
2019-05-17T10:21:02.000Z,23.062
2019-05-17T10:22:02.000Z,23.687
2019-05-17T10:23:02.000Z,24
2019-05-17T10:24:02.000Z,24.062
2019-05-17T10:25:01.000Z,24
2019-05-17T10:26:02.000Z,23.687
2019-05-17T10:26:02.000Z,23.687
2019-05-17T10:27:02.000Z,23.687
2019-05-17T10:28:02.000Z,23.625
2019-05-17T10:29:02.000Z,23.437
2019-05-17T10:30:02.000Z,23.437
2019-05-17T10:31:01.000Z,23.125
2019-05-17T10:32:01.000Z,22.875
2019-05-17T10:33:01.000Z,22.812
2019-05-17T10:34:01.000Z,22.875
2019-05-17T10:35:02.000Z,22.937
2019-05-17T10:36:02.000Z,23.125
2019-05-17T10:36:02.000Z,23.125
2019-05-17T10:37:01.000Z,23.125
2019-05-17T10:38:01.000Z,23.125
2019-05-17T10:39:02.000Z,23.187
2019-05-17T10:40:01.000Z,23.187
2019-05-17T10:41:01.000Z,22.75
2019-05-17T10:42:01.000Z,22.187
2019-05-17T10:43:01.000Z,21.812
2019-05-17T10:44:01.000Z,21.375
2019-05-17T10:45:01.000Z,21.187
2019-05-17T10:46:01.000Z,21.312
2019-05-17T10:47:01.000Z,21.312
2019-05-17T10:48:01.000Z,21.312
2019-05-17T10:49:01.000Z,21.312
2019-05-17T10:49:01.000Z,21.312
2019-05-17T10:50:01.000Z,21.437
2019-05-17T10:51:01.000Z,21.5
2019-05-17T10:52:01.000Z,21.625
2019-05-17T10:53:01.000Z,21.625
2019-05-17T10:54:01.000Z,21.625
2019-05-17T10:55:01.000Z,21.687
2019-05-17T10:56:01.000Z,21.5
2019-05-17T10:57:01.000Z,21.312
2019-05-17T10:58:01.000Z,21.187
2019-05-17T10:59:01.000Z,21.125
2019-05-17T11:00:01.000Z,21
2019-05-17T11:01:01.000Z,20.937
2019-05-17T11:02:01.000Z,20.937
2019-05-17T11:02:02.000Z,20.937
2019-05-17T11:03:01.000Z,20.937
2019-05-17T11:04:01.000Z,20.75
2019-05-17T11:05:01.000Z,20.562
2019-05-17T11:06:01.000Z,20.437
2019-05-17T11:07:01.000Z,20.562
2019-05-17T11:08:01.000Z,20.75
2019-05-17T11:09:01.000Z,21
2019-05-17T11:10:01.000Z,21.062
2019-05-17T11:11:01.000Z,21
2019-05-17T11:12:01.000Z,21.062
2019-05-17T11:13:01.000Z,21.062
2019-05-17T11:14:01.000Z,20.812
2019-05-17T11:15:01.000Z,20.75
2019-05-17T11:16:02.000Z,20.75
2019-05-17T11:16:02.000Z,20.75
2019-05-17T11:17:02.000Z,20.75
2019-05-17T11:18:02.000Z,20.75
2019-05-17T11:19:01.000Z,20.75
2019-05-17T11:20:02.000Z,20.75
2019-05-17T11:21:02.000Z,20.812
2019-05-17T11:22:02.000Z,20.875
2019-05-17T11:23:02.000Z,21
2019-05-17T11:24:02.000Z,21
2019-05-17T11:25:02.000Z,21.062
2019-05-17T11:26:02.000Z,21.125
2019-05-17T11:27:02.000Z,21.125
2019-05-17T11:28:01.000Z,21.062
2019-05-17T11:29:01.000Z,20.937
2019-05-17T11:29:02.000Z,20.937
2019-05-17T11:30:01.000Z,20.937
2019-05-17T11:31:01.000Z,20.812
2019-05-17T11:32:01.000Z,20.75
2019-05-17T11:33:01.000Z,20.687
2019-05-17T11:34:02.000Z,20.687
2019-05-17T11:35:02.000Z,20.625
2019-05-17T11:36:02.000Z,20.5
2019-05-17T11:37:02.000Z,20.437
2019-05-17T11:38:02.000Z,20.375
2019-05-17T11:39:02.000Z,20.25
2019-05-17T11:40:02.000Z,20.312
2019-05-17T11:41:01.000Z,20.437
2019-05-17T11:42:02.000Z,20.437
2019-05-17T11:43:02.000Z,20.437
2019-05-17T11:44:01.000Z,20.5
2019-05-17T11:45:01.000Z,20.5
2019-05-17T11:46:01.000Z,20.562
2019-05-17T11:47:01.000Z,20.437
2019-05-17T11:48:01.000Z,20.312
2019-05-17T11:49:01.000Z,20.25
2019-05-17T11:49:01.000Z,20.25
2019-05-17T11:50:02.000Z,20.437
2019-05-17T11:51:02.000Z,20.625
2019-05-17T11:52:02.000Z,20.812
2019-05-17T11:53:02.000Z,20.937
2019-05-17T11:54:02.000Z,20.875
2019-05-17T11:55:01.000Z,20.812
2019-05-17T11:56:02.000Z,20.812
2019-05-17T11:57:02.000Z,20.812
2019-05-17T11:58:01.000Z,20.875
2019-05-17T11:59:01.000Z,20.812
2019-05-17T12:00:02.000Z,20.687
2019-05-17T12:01:02.000Z,20.812
2019-05-17T12:02:02.000Z,21
2019-05-17T12:03:02.000Z,21.062
2019-05-17T12:03:02.000Z,21.062
2019-05-17T12:04:02.000Z,21.125